createdAt,value
2024-03-02T00:00:13.969Z,7.01
2024-03-02T00:01:13.938Z,7.00
2024-03-02T00:02:13.910Z,6.99
2024-03-02T00:03:13.889Z,6.97
2024-03-02T00:04:13.873Z,6.96
2024-03-02T00:05:13.849Z,6.96
2024-03-02T00:06:13.846Z,6.97
2024-03-02T00:07:13.814Z,6.99
2024-03-02T00:08:13.796Z,6.97
2024-03-02T00:09:13.855Z,6.97
2024-03-02T00:10:13.842Z,6.96
2024-03-02T00:11:13.816Z,6.97
2024-03-02T00:12:13.858Z,6.96
2024-03-02T00:13:13.756Z,6.97
2024-03-02T00:14:13.740Z,6.96
2024-03-02T00:15:13.750Z,6.96
2024-03-02T00:16:13.738Z,6.96
2024-03-02T00:17:13.716Z,6.96
2024-03-02T00:18:13.823Z,6.94
2024-03-02T00:19:13.721Z,6.99
2024-03-02T00:20:13.676Z,6.99
2024-03-02T00:21:13.747Z,7.00
2024-03-02T00:22:13.652Z,6.99
2024-03-02T00:23:13.647Z,6.99
2024-03-02T00:24:13.660Z,6.97
2024-03-02T00:25:13.618Z,6.96
2024-03-02T00:26:13.633Z,6.94
2024-03-02T00:27:13.651Z,6.96
2024-03-02T00:28:13.631Z,6.99
2024-03-02T00:29:13.609Z,7.00
2024-03-02T00:30:13.584Z,6.99
2024-03-02T00:31:13.584Z,6.99
2024-03-02T00:32:13.561Z,6.99
2024-03-02T00:33:13.596Z,6.97
2024-03-02T00:34:13.567Z,7.00
2024-03-02T00:35:13.517Z,7.00
2024-03-02T00:36:13.547Z,7.01
2024-03-02T00:37:13.530Z,7.04
2024-03-02T00:38:13.485Z,7.04
2024-03-02T00:39:13.491Z,7.04
2024-03-02T00:40:13.464Z,7.04
2024-03-02T00:41:13.487Z,7.04
2024-03-02T00:42:13.482Z,7.04
2024-03-02T00:43:13.428Z,7.04
2024-03-02T00:44:13.416Z,7.05
2024-03-02T00:45:13.460Z,7.04
2024-03-02T00:46:13.402Z,7.01
2024-03-02T00:47:13.393Z,7.04
2024-03-02T00:48:13.393Z,7.04
2024-03-02T00:49:13.386Z,7.04
2024-03-02T00:50:20.622Z,7.04
2024-03-02T00:51:13.369Z,7.04
2024-03-02T00:52:13.360Z,7.04
2024-03-02T00:53:13.342Z,7.05
2024-03-02T00:54:13.350Z,7.01
2024-03-02T00:55:13.301Z,7.01
2024-03-02T00:56:13.293Z,7.01
2024-03-02T00:57:13.365Z,7.01
2024-03-02T00:58:13.296Z,7.00
2024-03-02T00:59:13.269Z,7.01
2024-03-02T01:00:13.296Z,6.94
2024-03-02T01:01:13.327Z,6.90
2024-03-02T01:02:13.217Z,6.86
2024-03-02T01:03:13.274Z,6.78
2024-03-02T01:04:13.238Z,6.72
2024-03-02T01:05:13.202Z,6.71
2024-03-02T01:06:13.204Z,6.65
2024-03-02T01:07:13.170Z,6.69
2024-03-02T01:08:13.169Z,6.71
2024-03-02T01:09:13.238Z,6.69
2024-03-02T01:10:13.156Z,6.65
2024-03-02T01:11:13.136Z,6.69
2024-03-02T01:12:13.184Z,6.71
2024-03-02T01:13:13.144Z,6.69
2024-03-02T01:14:13.101Z,6.65
2024-03-02T01:15:13.171Z,6.63
2024-03-02T01:16:13.086Z,6.57
2024-03-02T01:17:13.075Z,6.48
2024-03-02T01:18:13.085Z,6.43
2024-03-02T01:19:13.128Z,6.39
2024-03-02T01:20:13.038Z,6.35
2024-03-02T01:21:13.154Z,6.30
2024-03-02T01:22:13.019Z,6.25
2024-03-02T01:23:13.029Z,6.24
2024-03-02T01:24:13.013Z,6.24
2024-03-02T01:25:12.989Z,6.17
2024-03-02T01:26:13.018Z,6.16
2024-03-02T01:27:13.056Z,6.17
2024-03-02T01:28:12.947Z,6.16
2024-03-02T01:29:13.005Z,6.14
2024-03-02T01:30:12.996Z,6.13
2024-03-02T01:31:12.965Z,6.08
2024-03-02T01:32:12.944Z,6.05
2024-03-02T01:33:13.025Z,6.02
2024-03-02T01:34:12.922Z,5.98
2024-03-02T01:35:12.904Z,5.95
2024-03-02T01:36:12.916Z,5.88
2024-03-02T01:37:12.864Z,5.90
2024-03-02T01:38:12.896Z,5.95
2024-03-02T01:39:12.941Z,5.92
2024-03-02T01:40:12.831Z,5.92
2024-03-02T01:41:12.860Z,5.96
2024-03-02T01:42:12.878Z,6.01
2024-03-02T01:43:12.801Z,5.98
2024-03-02T01:44:12.798Z,5.98
2024-03-02T01:45:12.925Z,5.92
2024-03-02T01:46:12.767Z,5.88
2024-03-02T01:47:12.750Z,5.85
2024-03-02T01:48:12.777Z,5.81
2024-03-02T01:49:12.771Z,5.80
2024-03-02T01:50:12.773Z,5.78
2024-03-02T01:51:12.724Z,5.74
2024-03-02T01:52:12.692Z,5.73
2024-03-02T01:53:12.739Z,5.70
2024-03-02T01:54:12.694Z,5.69
2024-03-02T01:55:12.680Z,5.66
2024-03-02T01:56:12.675Z,5.63
2024-03-02T01:57:12.648Z,5.63
2024-03-02T01:58:12.640Z,5.63
2024-03-02T01:59:12.649Z,5.65
2024-03-02T02:00:12.651Z,5.65
2024-03-02T02:01:12.733Z,5.69
2024-03-02T02:02:12.598Z,5.73
2024-03-02T02:03:12.593Z,5.70
2024-03-02T02:04:12.576Z,5.73
2024-03-02T02:05:12.568Z,5.73
2024-03-02T02:06:12.547Z,5.69
2024-03-02T02:07:12.580Z,5.70
2024-03-02T02:08:12.544Z,5.70
2024-03-02T02:09:12.545Z,5.69
2024-03-02T02:10:12.534Z,5.69
2024-03-02T02:11:12.530Z,5.73
2024-03-02T02:12:12.501Z,5.73
2024-03-02T02:13:12.505Z,5.70
2024-03-02T02:14:12.481Z,5.69
2024-03-02T02:15:12.478Z,5.74
2024-03-02T02:16:12.509Z,5.73
2024-03-02T02:17:12.473Z,5.70
2024-03-02T02:18:12.489Z,5.73
2024-03-02T02:19:12.441Z,5.69
2024-03-02T02:20:12.413Z,5.69
2024-03-02T02:21:12.394Z,5.70
2024-03-02T02:22:12.404Z,5.69
2024-03-02T02:23:12.389Z,5.67
2024-03-02T02:24:12.388Z,5.66
2024-03-02T02:25:12.362Z,5.66
2024-03-02T02:26:12.339Z,5.70
2024-03-02T02:27:12.359Z,5.74
2024-03-02T02:28:12.340Z,5.77
2024-03-02T02:29:12.329Z,5.77
2024-03-02T02:30:12.301Z,5.77
2024-03-02T02:31:12.350Z,5.78
2024-03-02T02:32:12.292Z,5.77
2024-03-02T02:33:12.345Z,5.77
2024-03-02T02:34:12.330Z,5.75
2024-03-02T02:35:12.258Z,5.74
2024-03-02T02:36:12.251Z,5.73
2024-03-02T02:37:12.271Z,5.70
2024-03-02T02:38:12.238Z,5.69
2024-03-02T02:39:12.207Z,5.67
2024-03-02T02:40:12.251Z,5.67
2024-03-02T02:41:12.202Z,5.66
2024-03-02T02:42:12.192Z,5.66
2024-03-02T02:43:12.166Z,5.65
2024-03-02T02:44:12.155Z,5.63
2024-03-02T02:45:12.206Z,5.63
2024-03-02T02:46:12.238Z,5.59
2024-03-02T02:47:12.156Z,5.60
2024-03-02T02:48:12.151Z,5.62
2024-03-02T02:49:12.116Z,5.59
2024-03-02T02:50:12.158Z,5.58
2024-03-02T02:51:12.105Z,5.56
2024-03-02T02:52:12.086Z,5.55
2024-03-02T02:53:12.116Z,5.55
2024-03-02T02:54:12.074Z,5.52
2024-03-02T02:55:12.048Z,5.51
2024-03-02T02:56:12.036Z,5.49
2024-03-02T02:57:12.096Z,5.45
2024-03-02T02:58:12.020Z,5.41
2024-03-02T02:59:12.011Z,5.42
2024-03-02T03:00:12.107Z,5.40
2024-03-02T03:01:12.121Z,5.37
2024-03-02T03:02:11.980Z,5.33
2024-03-02T03:03:12.009Z,5.30
2024-03-02T03:04:11.950Z,5.26
2024-03-02T03:05:11.965Z,5.23
2024-03-02T03:06:11.938Z,5.22
2024-03-02T03:07:11.946Z,5.17
2024-03-02T03:08:11.952Z,5.17
2024-03-02T03:09:11.910Z,5.17
2024-03-02T03:10:11.942Z,5.15
2024-03-02T03:11:11.897Z,5.11
2024-03-02T03:12:11.865Z,5.08
2024-03-02T03:13:11.872Z,5.09
2024-03-02T03:14:11.895Z,5.08
2024-03-02T03:15:11.879Z,5.05
2024-03-02T03:16:11.863Z,5.05
2024-03-02T03:17:11.819Z,5.06
2024-03-02T03:18:11.899Z,5.05
2024-03-02T03:19:11.804Z,5.08
2024-03-02T03:20:11.917Z,5.08
2024-03-02T03:21:11.784Z,5.05
2024-03-02T03:22:11.762Z,5.04
2024-03-02T03:23:11.757Z,5.02
2024-03-02T03:24:11.756Z,4.99
2024-03-02T03:25:11.790Z,4.99
2024-03-02T03:26:11.736Z,4.94
2024-03-02T03:27:11.713Z,4.93
2024-03-02T03:28:11.701Z,4.94
2024-03-02T03:29:11.701Z,4.93
2024-03-02T03:30:11.692Z,4.90
2024-03-02T03:31:11.688Z,4.87
2024-03-02T03:32:11.689Z,4.83
2024-03-02T03:33:11.671Z,4.79
2024-03-02T03:34:11.638Z,4.77
2024-03-02T03:35:11.703Z,4.74
2024-03-02T03:36:11.641Z,4.72
2024-03-02T03:37:11.646Z,4.68
2024-03-02T03:38:11.596Z,4.68
2024-03-02T03:39:11.589Z,4.64
2024-03-02T03:40:11.892Z,4.64
2024-03-02T03:41:11.569Z,4.61
2024-03-02T03:42:11.595Z,4.59
2024-03-02T03:43:11.660Z,4.64
2024-03-02T03:44:11.546Z,4.68
2024-03-02T03:45:11.539Z,4.67
2024-03-02T03:46:11.530Z,4.65
2024-03-02T03:47:11.500Z,4.65
2024-03-02T03:48:11.565Z,4.64
2024-03-02T03:49:11.481Z,4.61
2024-03-02T03:50:11.478Z,4.64
2024-03-02T03:51:11.459Z,4.61
2024-03-02T03:52:11.449Z,4.59
2024-03-02T03:53:11.452Z,4.64
2024-03-02T03:54:11.448Z,4.68
2024-03-02T03:55:11.451Z,4.72
2024-03-02T03:56:11.435Z,4.83
2024-03-02T03:57:11.388Z,4.88
2024-03-02T03:58:11.386Z,4.93
2024-03-02T03:59:11.369Z,4.91
2024-03-02T04:00:11.676Z,4.97
2024-03-02T04:01:11.404Z,5.01
2024-03-02T04:02:11.337Z,5.04
2024-03-02T04:03:11.323Z,5.08
2024-03-02T04:04:11.325Z,5.11
2024-03-02T04:05:11.326Z,5.15
2024-03-02T04:06:11.333Z,5.19
2024-03-02T04:07:11.295Z,5.22
2024-03-02T04:08:11.282Z,5.22
2024-03-02T04:09:11.271Z,5.26
2024-03-02T04:10:11.303Z,5.27
2024-03-02T04:11:11.258Z,5.29
2024-03-02T04:12:11.304Z,5.30
2024-03-02T04:13:11.234Z,5.29
2024-03-02T04:14:11.226Z,5.29
2024-03-02T04:15:11.248Z,5.29
2024-03-02T04:16:11.197Z,5.30
2024-03-02T04:17:11.202Z,5.32
2024-03-02T04:18:11.243Z,5.37
2024-03-02T04:19:11.177Z,5.37
2024-03-02T04:20:11.160Z,5.38
2024-03-02T04:21:11.141Z,5.40
2024-03-02T04:22:15.939Z,5.38
2024-03-02T04:23:11.161Z,5.40
2024-03-02T04:24:11.115Z,5.41
2024-03-02T04:25:11.107Z,5.40
2024-03-02T04:26:11.100Z,5.40
2024-03-02T04:27:11.078Z,5.41
2024-03-02T04:28:11.106Z,5.42
2024-03-02T04:29:11.076Z,5.48
2024-03-02T04:30:11.060Z,5.49
2024-03-02T04:31:11.053Z,5.51
2024-03-02T04:32:11.117Z,5.55
2024-03-02T04:33:11.164Z,5.55
2024-03-02T04:34:11.059Z,5.55
2024-03-02T04:35:11.026Z,5.59
2024-03-02T04:36:10.989Z,5.66
2024-03-02T04:37:11.072Z,5.70
2024-03-02T04:38:10.969Z,5.73
2024-03-02T04:39:11.028Z,5.74
2024-03-02T04:40:11.001Z,5.77
2024-03-02T04:41:10.929Z,5.78
2024-03-02T04:42:10.965Z,5.77
2024-03-02T04:43:10.917Z,5.75
2024-03-02T04:44:10.913Z,5.75
2024-03-02T04:45:10.904Z,5.74
2024-03-02T04:46:10.973Z,5.70
2024-03-02T04:47:10.888Z,5.67
2024-03-02T04:48:10.868Z,5.66
2024-03-02T04:49:10.948Z,5.66
2024-03-02T04:50:10.849Z,5.63
2024-03-02T04:51:10.887Z,5.62
2024-03-02T04:52:10.841Z,5.62
2024-03-02T04:53:10.816Z,5.60
2024-03-02T04:54:10.806Z,5.59
2024-03-02T04:55:10.817Z,5.63
2024-03-02T04:56:10.792Z,5.73
2024-03-02T04:57:10.819Z,5.74
2024-03-02T04:58:10.756Z,5.75
2024-03-02T04:59:10.757Z,5.80
2024-03-02T05:00:10.759Z,5.81
2024-03-02T05:01:10.863Z,5.80
2024-03-02T05:02:10.722Z,5.80
2024-03-02T05:03:10.725Z,5.77
2024-03-02T05:04:10.694Z,5.81
2024-03-02T05:05:10.696Z,6.01
2024-03-02T05:06:10.687Z,6.06
2024-03-02T05:07:10.718Z,6.10
2024-03-02T05:08:10.674Z,6.10
2024-03-02T05:09:10.665Z,6.03
2024-03-02T05:10:10.635Z,5.99
2024-03-02T05:11:10.655Z,5.95
2024-03-02T05:12:10.607Z,5.90
2024-03-02T05:13:10.673Z,5.85
2024-03-02T05:14:10.614Z,5.80
2024-03-02T05:15:10.605Z,5.77
2024-03-02T05:16:10.570Z,5.73
2024-03-02T05:17:10.590Z,5.70
2024-03-02T05:18:10.639Z,5.69
2024-03-02T05:19:10.582Z,5.67
2024-03-02T05:20:10.556Z,5.69
2024-03-02T05:21:10.520Z,5.69
2024-03-02T05:22:10.522Z,5.74
2024-03-02T05:23:10.504Z,5.78
2024-03-02T05:24:10.492Z,5.84
2024-03-02T05:25:10.480Z,5.87
2024-03-02T05:26:10.506Z,5.84
2024-03-02T05:27:10.475Z,5.84
2024-03-02T05:28:10.508Z,5.81
2024-03-02T05:29:10.462Z,5.81
2024-03-02T05:30:10.455Z,5.77
2024-03-02T05:31:10.428Z,5.77
2024-03-02T05:32:10.408Z,5.74
2024-03-02T05:33:10.457Z,5.74
2024-03-02T05:34:10.421Z,5.74
2024-03-02T05:35:10.392Z,5.77
2024-03-02T05:36:10.379Z,5.84
2024-03-02T05:37:10.375Z,5.87
2024-03-02T05:38:10.348Z,5.98
2024-03-02T05:39:10.412Z,6.05
2024-03-02T05:40:10.317Z,6.06
2024-03-02T05:41:10.315Z,6.10
2024-03-02T05:42:10.319Z,6.10
2024-03-02T05:43:10.337Z,6.11
2024-03-02T05:44:10.295Z,6.10
2024-03-02T05:45:10.287Z,6.16
2024-03-02T05:46:10.256Z,6.19
2024-03-02T05:47:10.275Z,6.13
2024-03-02T05:48:10.354Z,6.14
2024-03-02T05:49:10.292Z,6.11
2024-03-02T05:50:10.226Z,6.16
2024-03-02T05:51:10.214Z,6.13
2024-03-02T05:52:10.202Z,6.13
2024-03-02T05:53:10.187Z,6.13
2024-03-02T05:54:10.214Z,6.17
2024-03-02T05:55:10.165Z,6.20
2024-03-02T05:56:10.152Z,6.24
2024-03-02T05:57:10.153Z,6.28
2024-03-02T05:58:10.133Z,6.35
2024-03-02T05:59:10.142Z,6.36
2024-03-02T06:00:10.132Z,6.35
2024-03-02T06:01:10.200Z,6.36
2024-03-02T06:02:10.099Z,6.32
2024-03-02T06:03:10.102Z,6.33
2024-03-02T06:04:10.074Z,6.30
2024-03-02T06:05:10.150Z,6.32
2024-03-02T06:06:10.054Z,6.32
2024-03-02T06:07:10.063Z,6.30
2024-03-02T06:08:10.046Z,6.28
2024-03-02T06:09:10.026Z,6.30
2024-03-02T06:10:13.774Z,6.28
2024-03-02T06:11:10.091Z,6.30
2024-03-02T06:12:10.015Z,6.32
2024-03-02T06:13:09.983Z,6.30
2024-03-02T06:14:10.032Z,6.32
2024-03-02T06:15:09.983Z,6.30
2024-03-02T06:16:10.011Z,6.30
2024-03-02T06:17:09.989Z,6.32
2024-03-02T06:18:09.988Z,6.32
2024-03-02T06:19:09.918Z,6.32
2024-03-02T06:20:10.277Z,6.32
2024-03-02T06:21:09.892Z,6.33
2024-03-02T06:22:09.926Z,6.35
2024-03-02T06:23:09.990Z,6.33
2024-03-02T06:24:09.858Z,6.35
2024-03-02T06:25:09.932Z,6.36
2024-03-02T06:26:09.868Z,6.36
2024-03-02T06:27:09.849Z,6.36
2024-03-02T06:28:09.839Z,6.36
2024-03-02T06:29:09.819Z,6.36
2024-03-02T06:30:09.841Z,6.38
2024-03-02T06:31:09.843Z,6.39
2024-03-02T06:32:09.794Z,6.40
2024-03-02T06:33:09.854Z,6.43
2024-03-02T06:34:09.925Z,6.42
2024-03-02T06:35:09.760Z,6.42
2024-03-02T06:36:09.733Z,6.43
2024-03-02T06:37:09.741Z,6.43
2024-03-02T06:38:09.737Z,6.45
2024-03-02T06:39:09.737Z,6.45
2024-03-02T06:40:09.696Z,6.45
2024-03-02T06:41:09.695Z,6.46
2024-03-02T06:42:09.677Z,6.50
2024-03-02T06:43:09.672Z,6.50
2024-03-02T06:44:09.666Z,6.51
2024-03-02T06:45:09.668Z,6.53
2024-03-02T06:46:09.634Z,6.55
2024-03-02T06:47:09.636Z,6.55
2024-03-02T06:48:09.653Z,6.58
2024-03-02T06:49:09.622Z,6.58
2024-03-02T06:50:09.606Z,6.58
2024-03-02T06:51:09.670Z,6.61
2024-03-02T06:52:09.572Z,6.64
2024-03-02T06:53:09.570Z,6.68
2024-03-02T06:54:09.590Z,6.69
2024-03-02T06:55:09.554Z,6.69
2024-03-02T06:56:09.558Z,6.73
2024-03-02T06:57:09.525Z,6.73
2024-03-02T06:58:09.542Z,6.76
2024-03-02T06:59:09.510Z,6.75
2024-03-02T07:00:09.503Z,6.75
2024-03-02T07:01:09.516Z,6.76
2024-03-02T07:02:09.563Z,6.76
2024-03-02T07:03:09.466Z,6.75
2024-03-02T07:04:09.484Z,6.75
2024-03-02T07:05:09.449Z,6.78
2024-03-02T07:06:09.431Z,6.78
2024-03-02T07:07:09.452Z,6.76
2024-03-02T07:08:09.463Z,6.79
2024-03-02T07:09:09.420Z,6.79
2024-03-02T07:10:09.398Z,6.82
2024-03-02T07:11:09.406Z,6.83
2024-03-02T07:12:09.355Z,6.86
2024-03-02T07:13:09.407Z,6.87
2024-03-02T07:14:09.363Z,6.90
2024-03-02T07:15:09.345Z,6.91
2024-03-02T07:16:09.361Z,6.96
2024-03-02T07:17:09.308Z,6.99
2024-03-02T07:18:09.304Z,7.04
2024-03-02T07:19:09.449Z,7.08
2024-03-02T07:20:09.339Z,7.11
2024-03-02T07:21:09.269Z,7.11
2024-03-02T07:22:09.279Z,7.12
2024-03-02T07:23:09.261Z,7.14
2024-03-02T07:24:09.228Z,7.14
2024-03-02T07:25:09.226Z,7.16
2024-03-02T07:27:09.197Z,7.23
2024-03-02T07:28:09.193Z,7.29
2024-03-02T07:29:09.196Z,7.33
2024-03-02T07:30:09.177Z,7.45
2024-03-02T07:31:09.235Z,7.48
2024-03-02T07:32:09.184Z,7.54
2024-03-02T07:33:09.178Z,7.62
2024-03-02T07:34:09.188Z,7.91
2024-03-02T07:35:09.155Z,8.25
2024-03-02T07:36:09.159Z,8.60
2024-03-02T07:37:09.116Z,8.86
2024-03-02T07:38:09.084Z,9.00
2024-03-02T07:39:09.080Z,9.19
2024-03-02T07:40:09.069Z,9.30
2024-03-02T07:41:09.074Z,9.42
2024-03-02T07:42:09.081Z,9.53
2024-03-02T07:43:09.038Z,9.53
2024-03-02T07:44:09.024Z,9.59
2024-03-02T07:45:09.004Z,9.65
2024-03-02T07:46:09.011Z,9.70
2024-03-02T07:47:09.033Z,9.78
2024-03-02T07:48:09.024Z,9.86
2024-03-02T07:49:08.977Z,10.04
2024-03-02T07:50:08.979Z,10.18
2024-03-02T07:51:08.958Z,10.28
2024-03-02T07:52:08.942Z,10.42
2024-03-02T07:53:09.001Z,10.55
2024-03-02T07:54:08.912Z,10.63
2024-03-02T07:55:08.908Z,10.68
2024-03-02T07:56:08.905Z,10.73
2024-03-02T07:57:08.885Z,10.98
2024-03-02T07:58:08.920Z,11.24
2024-03-02T07:59:08.912Z,11.45
2024-03-02T08:00:08.861Z,11.51
2024-03-02T08:01:08.886Z,11.51
2024-03-02T08:02:08.851Z,11.41
2024-03-02T08:03:08.833Z,11.13
2024-03-02T08:04:08.817Z,11.16
2024-03-02T08:05:08.837Z,11.28
2024-03-02T08:06:08.836Z,11.41
2024-03-02T08:07:08.842Z,11.49
2024-03-02T08:08:08.804Z,11.51
2024-03-02T08:09:08.756Z,11.54
2024-03-02T08:10:08.834Z,11.46
2024-03-02T08:11:08.785Z,11.46
2024-03-02T08:12:16.264Z,11.53
2024-03-02T08:13:08.723Z,11.46
2024-03-02T08:14:09.297Z,11.56
2024-03-02T08:15:08.710Z,11.62
2024-03-02T08:16:08.783Z,11.51
2024-03-02T08:17:08.670Z,11.38
2024-03-02T08:18:08.699Z,11.33
2024-03-02T08:19:08.710Z,11.21
2024-03-02T08:20:08.646Z,11.19
2024-03-02T08:21:08.638Z,11.45
2024-03-02T08:22:08.728Z,11.60
2024-03-02T08:23:08.611Z,11.72
2024-03-02T08:24:08.594Z,11.81
2024-03-02T08:25:08.641Z,11.90
2024-03-02T08:26:08.583Z,11.77
2024-03-02T08:27:08.591Z,11.70
2024-03-02T08:28:08.630Z,11.79
2024-03-02T08:29:08.554Z,11.77
2024-03-02T08:30:08.553Z,11.87
2024-03-02T08:31:08.574Z,12.12
2024-03-02T08:32:08.514Z,12.31
2024-03-02T08:33:08.578Z,12.19
2024-03-02T08:34:08.556Z,12.22
2024-03-02T08:35:08.484Z,12.34
2024-03-02T08:36:08.462Z,12.36
2024-03-02T08:37:08.488Z,12.38
2024-03-02T08:38:08.447Z,12.52
2024-03-02T08:39:08.447Z,12.66
2024-03-02T08:40:08.556Z,12.71
2024-03-02T08:41:08.420Z,12.91
2024-03-02T08:42:08.405Z,12.89
2024-03-02T08:43:08.421Z,13.01
2024-03-02T08:44:08.391Z,13.28
2024-03-02T08:45:08.379Z,13.39
2024-03-02T08:46:08.412Z,13.57
2024-03-02T08:47:08.359Z,13.53
2024-03-02T08:48:08.362Z,13.22
2024-03-02T08:49:08.380Z,13.44
2024-03-02T08:50:08.337Z,13.57
2024-03-02T08:51:08.321Z,13.63
2024-03-02T08:52:08.372Z,13.55
2024-03-02T08:53:08.279Z,13.41
2024-03-02T08:54:08.287Z,13.53
2024-03-02T08:55:08.353Z,13.53
2024-03-02T08:56:08.282Z,13.36
2024-03-02T08:57:08.278Z,13.39
2024-03-02T08:58:08.295Z,13.25
2024-03-02T08:59:08.218Z,13.27
2024-03-02T09:00:08.217Z,13.19
2024-03-02T09:01:08.355Z,13.13
2024-03-02T09:02:08.241Z,13.24
2024-03-02T09:03:08.170Z,13.48
2024-03-02T09:04:08.219Z,13.65
2024-03-02T09:05:08.158Z,13.62
2024-03-02T09:06:08.142Z,13.54
2024-03-02T09:07:08.224Z,13.51
2024-03-02T09:08:08.153Z,13.39
2024-03-02T09:09:08.157Z,13.35
2024-03-02T09:10:08.149Z,13.38
2024-03-02T09:11:08.080Z,13.36
2024-03-02T09:12:08.158Z,13.04
2024-03-02T09:13:08.120Z,12.96
2024-03-02T09:14:08.068Z,12.94
2024-03-02T09:15:08.047Z,12.94
2024-03-02T09:16:08.115Z,12.87
2024-03-02T09:17:08.017Z,12.81
2024-03-02T09:18:08.174Z,12.67
2024-03-02T09:19:08.076Z,12.48
2024-03-02T09:20:08.003Z,12.49
2024-03-02T09:21:08.002Z,12.71
2024-03-02T09:22:08.016Z,12.81
2024-03-02T09:23:07.960Z,12.99
2024-03-02T09:24:08.218Z,13.10
2024-03-02T09:25:07.976Z,13.03
2024-03-02T09:26:07.930Z,12.96
2024-03-02T09:27:07.912Z,13.01
2024-03-02T09:28:07.943Z,13.03
2024-03-02T09:29:07.915Z,13.07
2024-03-02T09:30:07.920Z,13.17
2024-03-02T09:31:08.043Z,13.31
2024-03-02T09:32:07.874Z,13.35
2024-03-02T09:34:08.050Z,13.47
2024-03-02T09:35:07.852Z,13.46
2024-03-02T09:36:07.845Z,13.65
2024-03-02T09:37:07.823Z,13.81
2024-03-02T09:38:07.823Z,13.68
2024-03-02T09:39:07.811Z,13.72
2024-03-02T09:40:07.813Z,13.59
2024-03-02T09:41:07.820Z,13.44
2024-03-02T09:42:07.789Z,13.47
2024-03-02T09:43:07.791Z,13.66
2024-03-02T09:44:07.746Z,13.80
2024-03-02T09:45:07.727Z,14.09
2024-03-02T09:46:07.802Z,14.13
2024-03-02T09:47:07.706Z,14.09
2024-03-02T09:48:07.734Z,14.09
2024-03-02T09:49:07.683Z,14.13
2024-03-02T09:50:07.680Z,14.23
2024-03-02T09:51:07.660Z,14.45
2024-03-02T09:52:07.701Z,14.45
2024-03-02T09:53:07.664Z,14.45
2024-03-02T09:54:13.454Z,14.48
2024-03-02T09:55:07.721Z,14.71
2024-03-02T09:56:07.615Z,14.74
2024-03-02T09:57:07.602Z,14.60
2024-03-02T09:58:07.679Z,14.46
2024-03-02T09:59:07.592Z,14.49
2024-03-02T10:00:07.590Z,14.56
2024-03-02T10:01:07.740Z,14.44
2024-03-02T10:02:07.544Z,14.30
2024-03-02T10:03:07.531Z,14.27
2024-03-02T10:04:07.565Z,14.21
2024-03-02T10:05:07.564Z,14.24
2024-03-02T10:06:07.510Z,14.29
2024-03-02T10:07:07.496Z,14.21
2024-03-02T10:08:07.500Z,14.12
2024-03-02T10:09:07.470Z,13.81
2024-03-02T10:10:07.521Z,13.76
2024-03-02T10:11:07.462Z,13.71
2024-03-02T10:12:07.459Z,13.71
2024-03-02T10:13:07.444Z,13.63
2024-03-02T10:14:07.421Z,13.68
2024-03-02T10:15:07.440Z,13.59
2024-03-02T10:16:07.453Z,13.39
2024-03-02T10:17:07.386Z,13.39
2024-03-02T10:18:07.396Z,13.27
2024-03-02T10:19:07.445Z,13.27
2024-03-02T10:20:07.394Z,13.43
2024-03-02T10:21:07.383Z,13.75
2024-03-02T10:22:07.496Z,13.93
2024-03-02T10:23:07.345Z,13.81
2024-03-02T10:24:07.362Z,13.62
2024-03-02T10:25:22.011Z,13.43
2024-03-02T10:26:07.416Z,13.27
2024-03-02T10:27:07.338Z,13.06
2024-03-02T10:28:07.372Z,12.95
2024-03-02T10:29:07.287Z,12.92
2024-03-02T10:30:07.343Z,12.91
2024-03-02T10:31:08.238Z,12.79
2024-03-02T10:32:07.256Z,12.80
2024-03-02T10:33:07.411Z,12.88
2024-03-02T10:34:07.270Z,12.84
2024-03-02T10:35:07.302Z,12.73
2024-03-02T10:36:07.233Z,12.70
2024-03-02T10:37:07.376Z,12.67
2024-03-02T10:38:07.226Z,12.71
2024-03-02T10:39:07.190Z,12.77
2024-03-02T10:40:07.234Z,12.66
2024-03-02T10:41:07.150Z,12.54
2024-03-02T10:42:07.147Z,12.56
2024-03-02T10:43:07.322Z,12.62
2024-03-02T10:44:07.141Z,12.55
2024-03-02T10:45:07.104Z,12.59
2024-03-02T10:46:07.149Z,12.59
2024-03-02T10:47:07.169Z,12.62
2024-03-02T10:48:07.144Z,12.58
2024-03-02T10:49:08.719Z,12.49
2024-03-02T10:50:07.072Z,12.44
2024-03-02T10:51:07.049Z,12.52
2024-03-02T10:52:07.121Z,12.66
2024-03-02T10:53:07.181Z,12.79
2024-03-02T10:54:07.029Z,13.04
2024-03-02T10:55:07.129Z,13.13
2024-03-02T10:56:07.042Z,12.98
2024-03-02T10:57:06.976Z,13.06
2024-03-02T10:58:07.037Z,13.36
2024-03-02T10:59:06.960Z,13.62
2024-03-02T11:00:06.960Z,13.83
2024-03-02T11:01:07.042Z,13.99
2024-03-02T11:02:07.050Z,13.80
2024-03-02T11:03:06.940Z,13.76
2024-03-02T11:04:06.958Z,13.79
2024-03-02T11:05:06.993Z,13.94
2024-03-02T11:06:06.893Z,14.20
2024-03-02T11:07:06.965Z,14.48
2024-03-02T11:08:06.894Z,14.53
2024-03-02T11:09:06.866Z,14.48
2024-03-02T11:10:06.912Z,14.48
2024-03-02T11:11:06.898Z,14.31
2024-03-02T11:12:06.846Z,14.24
2024-03-02T11:13:06.832Z,14.12
2024-03-02T11:14:06.808Z,13.98
2024-03-02T11:15:06.803Z,13.86
2024-03-02T11:16:06.875Z,13.81
2024-03-02T11:17:06.780Z,13.79
2024-03-02T11:18:06.829Z,13.76
2024-03-02T11:19:06.872Z,13.72
2024-03-02T11:20:06.762Z,13.59
2024-03-02T11:21:06.771Z,13.48
2024-03-02T11:22:06.781Z,13.48
2024-03-02T11:23:06.742Z,13.53
2024-03-02T11:24:06.704Z,13.55
2024-03-02T11:25:06.722Z,13.53
2024-03-02T11:26:06.695Z,13.68
2024-03-02T11:27:06.686Z,13.90
2024-03-02T11:28:06.877Z,14.11
2024-03-02T11:29:06.709Z,14.06
2024-03-02T11:30:08.363Z,14.05
2024-03-02T11:31:06.664Z,13.98
2024-03-02T11:32:06.654Z,14.06
2024-03-02T11:33:06.627Z,13.87
2024-03-02T11:34:06.703Z,13.79
2024-03-02T11:35:06.627Z,13.65
2024-03-02T11:36:09.013Z,13.76
2024-03-02T11:37:06.589Z,13.91
2024-03-02T11:38:06.569Z,13.81
2024-03-02T11:39:06.631Z,13.75
2024-03-02T11:40:06.602Z,13.75
2024-03-02T11:41:06.539Z,13.69
2024-03-02T11:42:06.517Z,13.65
2024-03-02T11:43:06.569Z,13.81
2024-03-02T11:44:06.519Z,13.75
2024-03-02T11:45:06.505Z,13.86
2024-03-02T11:46:06.559Z,13.93
2024-03-02T11:47:06.477Z,14.06
2024-03-02T11:48:06.525Z,14.27
2024-03-02T11:49:06.500Z,14.53
2024-03-02T11:50:06.450Z,14.64
2024-03-02T11:51:06.443Z,14.63
2024-03-02T11:52:06.510Z,14.64
2024-03-02T11:53:06.416Z,14.44
2024-03-02T11:54:06.400Z,14.29
2024-03-02T11:55:06.456Z,14.39
2024-03-02T11:56:06.375Z,14.48
2024-03-02T11:57:06.374Z,14.46
2024-03-02T11:58:06.516Z,14.21
2024-03-02T11:59:06.350Z,14.19
2024-03-02T12:00:06.366Z,14.27
2024-03-02T12:01:06.532Z,14.20
2024-03-02T12:02:06.687Z,14.02
2024-03-02T12:03:06.376Z,13.83
2024-03-02T12:04:06.319Z,13.62
2024-03-02T12:05:06.295Z,13.51
2024-03-02T12:06:06.291Z,13.46
2024-03-02T12:07:06.352Z,13.39
2024-03-02T12:08:06.318Z,13.46
2024-03-02T12:09:06.282Z,13.43
2024-03-02T12:10:06.315Z,13.46
2024-03-02T12:11:06.311Z,13.47
2024-03-02T12:12:06.224Z,13.46
2024-03-02T12:13:06.405Z,13.43
2024-03-02T12:14:06.248Z,13.48
2024-03-02T12:15:06.230Z,13.50
2024-03-02T12:16:06.318Z,13.41
2024-03-02T12:17:06.178Z,13.47
2024-03-02T12:18:06.195Z,13.44
2024-03-02T12:19:06.223Z,13.46
2024-03-02T12:20:06.161Z,13.65
2024-03-02T12:21:06.133Z,13.88
2024-03-02T12:22:06.208Z,13.94
2024-03-02T12:23:06.227Z,13.99
2024-03-02T12:24:06.114Z,14.08
2024-03-02T12:25:06.223Z,14.13
2024-03-02T12:26:06.187Z,14.30
2024-03-02T12:27:06.082Z,14.52
2024-03-02T12:28:06.199Z,14.54
2024-03-02T12:29:06.074Z,14.75
2024-03-02T12:30:06.061Z,14.72
2024-03-02T12:31:06.081Z,14.54
2024-03-02T12:32:06.072Z,14.46
2024-03-02T12:33:06.041Z,14.49
2024-03-02T12:34:06.171Z,14.46
2024-03-02T12:35:06.061Z,14.46
2024-03-02T12:36:06.079Z,14.31
2024-03-02T12:37:06.105Z,14.34
2024-03-02T12:38:06.073Z,14.44
2024-03-02T12:39:05.950Z,14.57
2024-03-02T12:40:06.046Z,14.67
2024-03-02T12:41:05.933Z,14.75
2024-03-02T12:42:05.959Z,14.83
2024-03-02T12:43:06.077Z,14.93
2024-03-02T12:44:06.065Z,14.95
2024-03-02T12:45:05.904Z,14.98
2024-03-02T12:46:06.018Z,14.85
2024-03-02T12:47:05.925Z,14.83
2024-03-02T12:48:06.136Z,14.72
2024-03-02T12:49:05.975Z,14.57
2024-03-02T12:50:05.866Z,14.45
2024-03-02T12:51:05.937Z,14.45
2024-03-02T12:52:05.917Z,14.49
2024-03-02T12:53:05.808Z,14.57
2024-03-02T12:54:06.085Z,14.61
2024-03-02T12:55:05.912Z,14.66
2024-03-02T12:56:05.800Z,14.72
2024-03-02T12:57:05.771Z,14.90
2024-03-02T12:58:05.792Z,14.95
2024-03-02T12:59:05.764Z,15.11
2024-03-02T13:00:05.759Z,15.22
2024-03-02T13:01:05.839Z,15.20
2024-03-02T13:02:05.714Z,15.30
2024-03-02T13:03:05.724Z,15.34
2024-03-02T13:04:05.752Z,15.38
2024-03-02T13:05:05.759Z,15.13
2024-03-02T13:06:05.824Z,15.01
2024-03-02T13:07:05.791Z,14.97
2024-03-02T13:08:05.650Z,14.86
2024-03-02T13:09:05.647Z,14.69